Time;durP1;ratioP1;P1;durP2;ratioP2;P2;SDS_P1;SDS_P2;PMS_P1;PMS_P2;Temp;Humidity;BMP_temperature;BMP_pressure;BME280_temperature;BME280_humidity;BME280_pressure;Samples;Min_cycle;Max_cycle;Signal;HPM_P1;HPM_P2
2023/07/01 00:00:40;;;;;;;15.60;4.90;;;;;;;14.73;78.67;96094.16;5094162;28;20044;-62
2023/07/01 00:03:09;;;;;;;8.57;4.68;;;;;;;14.72;78.52;96092.47;5093948;28;20048;-62
2023/07/01 00:05:36;;;;;;;6.82;4.63;;;;;;;14.71;78.66;96088.13;5092915;28;20051;-62
2023/07/01 00:08:03;;;;;;;5.28;4.78;;;;;;;14.70;78.87;96084.69;5093911;28;20130;-61
2023/07/01 00:10:30;;;;;;;5.18;4.70;;;;;;;14.73;78.92;96092.38;5093759;28;20044;-63
2023/07/01 00:12:57;;;;;;;5.53;4.97;;;;;;;14.77;78.84;96082.50;5093787;28;20105;-62
2023/07/01 00:15:24;;;;;;;5.15;4.72;;;;;;;14.75;78.72;96087.03;5093682;28;20048;-61
2023/07/01 00:17:54;;;;;;;4.95;4.45;;;;;;;14.68;78.98;96085.69;5093754;28;20075;-62
2023/07/01 00:20:24;;;;;;;6.30;5.70;;;;;;;14.71;79.82;96080.25;5093707;28;20105;-62
2023/07/01 00:22:51;;;;;;;4.82;4.35;;;;;;;14.75;80.17;96087.03;5093639;28;20117;-63
2023/07/01 00:25:18;;;;;;;5.25;4.75;;;;;;;14.74;79.89;96083.53;5093502;28;20498;-62
2023/07/01 00:27:45;;;;;;;4.72;4.32;;;;;;;14.72;80.40;96085.41;5093489;28;20507;-62
2023/07/01 00:30:13;;;;;;;5.15;4.75;;;;;;;14.71;80.00;96078.47;5093745;28;20051;-61
2023/07/01 00:32:40;;;;;;;5.63;5.13;;;;;;;14.72;79.86;96079.31;5093574;28;20101;-63
2023/07/01 00:35:08;;;;;;;5.40;4.68;;;;;;;14.72;79.84;96077.50;5093249;28;20044;-62
2023/07/01 00:37:36;;;;;;;6.15;4.85;;;;;;;14.72;80.17;96081.97;5093400;28;20044;-62
2023/07/01 00:40:05;;;;;;;4.90;4.50;;;;;;;14.72;80.00;96080.16;5093349;28;20407;-62
2023/07/01 00:42:32;;;;;;;8.70;5.15;;;;;;;14.73;79.83;96075.75;5093333;28;20048;-62
2023/07/01 00:44:59;;;;;;;5.38;4.82;;;;;;;14.74;79.58;96075.66;5093082;28;20105;-61
2023/07/01 00:47:26;;;;;;;5.85;5.05;;;;;;;14.67;79.43;96076.97;5093297;28;20040;-62
2023/07/01 00:49:54;;;;;;;9.48;4.72;;;;;;;14.62;78.93;96079.88;5093353;28;20048;-61
2023/07/01 00:52:21;;;;;;;11.95;4.50;;;;;;;14.60;79.22;96073.03;5093232;28;20117;-62
2023/07/01 00:54:49;;;;;;;7.93;4.72;;;;;;;14.62;79.09;96071.13;5093291;28;20044;-63
2023/07/01 00:57:17;;;;;;;7.45;4.28;;;;;;;14.59;78.75;96073.94;5093269;28;20144;-62
2023/07/01 00:59:44;;;;;;;7.43;4.95;;;;;;;14.58;79.02;96070.50;5093210;28;20123;-61
2023/07/01 01:02:19;;;;;;;5.20;4.80;;;;;;;14.60;79.82;96065.97;5093070;28;20079;-61
2023/07/01 01:04:58;;;;;;;4.97;4.55;;;;;;;14.61;79.81;96072.94;5093075;28;20041;-60
2023/07/01 01:07:30;;;;;;;6.38;4.80;;;;;;;14.61;79.79;96070.31;5093082;28;20055;-62
2023/07/01 01:10:04;;;;;;;5.25;4.35;;;;;;;14.60;79.53;96060.69;5093151;28;20052;-61
2023/07/01 01:12:32;;;;;;;5.05;4.55;;;;;;;14.58;79.52;96056.47;5092921;28;20052;-62
2023/07/01 01:15:01;;;;;;;5.30;4.70;;;;;;;14.53;79.81;96057.63;5092906;28;20088;-61
2023/07/01 01:17:32;;;;;;;5.63;5.05;;;;;;;14.57;80.07;96066.16;5096920;28;20052;-60
2023/07/01 01:20:12;;;;;;;5.53;4.38;;;;;;;14.60;79.79;96063.31;5097229;28;20044;-60
2023/07/01 01:22:45;;;;;;;4.57;4.18;;;;;;;14.61;79.22;96064.19;5097017;28;20053;-61
2023/07/01 01:25:24;;;;;;;7.15;5.13;;;;;;;14.61;79.26;96058.91;5097016;28;20044;-62
2023/07/01 01:27:54;;;;;;;5.03;4.53;;;;;;;14.58;79.90;96054.69;5096929;28;20482;-61
2023/07/01 01:30:22;;;;;;;6.53;4.45;;;;;;;14.59;79.57;96056.38;5097047;28;20044;-61
2023/07/01 01:32:49;;;;;;;5.05;4.55;;;;;;;14.55;80.08;96054.88;5096859;28;20108;-63
2023/07/01 01:35:17;;;;;;;7.25;5.30;;;;;;;14.53;79.92;96051.50;5096729;28;20086;-62
2023/07/01 01:37:49;;;;;;;5.65;3.95;;;;;;;14.51;79.72;96056.84;5096706;28;20055;-62
2023/07/01 01:40:23;;;;;;;7.75;4.82;;;;;;;14.53;79.83;96056.75;5096717;28;20101;-61
2023/07/01 01:42:56;;;;;;;5.15;4.35;;;;;;;14.50;79.76;96057.81;5096641;28;20044;-62
2023/07/01 01:45:23;;;;;;;7.35;4.82;;;;;;;14.51;80.25;96059.47;5096509;28;20048;-63
2023/07/01 01:47:52;;;;;;;7.20;4.97;;;;;;;14.50;80.88;96049.91;5096567;28;20059;-62
2023/07/01 01:50:20;;;;;;;6.07;4.88;;;;;;;14.44;81.00;96046.78;5096529;28;20134;-62
2023/07/01 01:52:50;;;;;;;4.82;4.43;;;;;;;14.48;80.68;96050.94;5096450;28;20052;-62
2023/07/01 01:55:18;;;;;;;4.97;4.57;;;;;;;14.51;81.08;96054.22;5096293;28;20063;-62
2023/07/01 01:57:46;;;;;;;5.03;4.57;;;;;;;14.52;80.92;96053.31;5096416;28;20044;-62
2023/07/01 02:00:15;;;;;;;5.35;4.85;;;;;;;14.52;81.15;96044.56;5096267;28;20452;-62
2023/07/01 02:02:42;;;;;;;5.85;5.30;;;;;;;14.53;81.41;96052.34;5096386;28;20094;-63
2023/07/01 02:05:10;;;;;;;5.20;4.80;;;;;;;14.55;81.52;96052.25;5096290;28;20119;-62
2023/07/01 02:07:37;;;;;;;5.35;4.85;;;;;;;14.58;81.39;96043.31;5096271;28;20162;-61
2023/07/01 02:10:04;;;;;;;4.72;4.32;;;;;;;14.58;80.91;96045.94;5096036;28;20056;-62
2023/07/01 02:12:32;;;;;;;4.63;4.22;;;;;;;14.57;80.84;96044.28;5096099;28;20044;-62
2023/07/01 02:14:59;;;;;;;4.70;4.30;;;;;;;14.53;80.50;96048.88;5096068;28;20048;-62
2023/07/01 02:17:27;;;;;;;6.25;4.68;;;;;;;14.53;80.37;96048.88;5096001;28;20093;-62
2023/07/01 02:19:54;;;;;;;4.88;4.47;;;;;;;14.50;80.39;96049.91;5096084;28;20051;-62
2023/07/01 02:22:22;;;;;;;5.15;4.68;;;;;;;14.46;80.52;96050.19;5095890;28;20079;-61
2023/07/01 02:24:49;;;;;;;6.68;4.50;;;;;;;14.45;80.37;96054.59;5095842;28;20048;-62
2023/07/01 02:27:16;;;;;;;5.20;4.80;;;;;;;14.45;80.48;96051.97;5094703;28;20542;-62
2023/07/01 02:29:44;;;;;;;7.05;4.95;;;;;;;14.45;80.80;96059.84;5095809;28;20040;-63
2023/07/01 02:32:11;;;;;;;4.72;4.32;;;;;;;14.46;80.80;96058.94;5095658;28;20087;-61
2023/07/01 02:34:40;;;;;;;5.45;4.65;;;;;;;14.46;81.25;96061.56;5095583;28;20048;-62
2023/07/01 02:37:07;;;;;;;7.35;4.82;;;;;;;14.43;81.20;96064.38;5095634;28;20562;-63
2023/07/01 02:39:34;;;;;;;5.57;4.78;;;;;;;14.37;81.13;96065.63;5095544;28;20501;-62
2023/07/01 02:42:01;;;;;;;6.60;5.07;;;;;;;14.37;80.88;96068.25;5095594;28;20052;-62
2023/07/01 02:44:28;;;;;;;6.97;4.82;;;;;;;14.36;80.95;96063.06;5095490;28;20044;-62
2023/07/01 02:46:55;;;;;;;8.50;5.40;;;;;;;14.35;80.56;96058.72;5095292;28;20048;-62
2023/07/01 02:49:23;;;;;;;4.75;4.35;;;;;;;14.35;80.96;96056.97;5095349;28;20134;-61
2023/07/01 02:51:51;;;;;;;5.20;4.38;;;;;;;14.27;80.14;96057.41;5095276;28;20090;-62
2023/07/01 02:54:18;;;;;;;5.90;4.22;;;;;;;14.24;80.63;96057.59;5095265;28;20446;-62
2023/07/01 02:56:45;;;;;;;8.77;4.60;;;;;;;14.26;80.71;96062.75;5095202;28;20048;-62
2023/07/01 02:59:12;;;;;;;5.60;4.38;;;;;;;14.24;81.26;96059.41;5095297;28;20406;-62
2023/07/01 03:01:40;;;;;;;9.48;4.25;;;;;;;14.22;80.87;96056.88;5095208;28;20136;-61
2023/07/01 03:04:07;;;;;;;5.25;4.75;;;;;;;14.22;81.25;96056.88;5095158;28;20083;-61
2023/07/01 03:06:37;;;;;;;5.47;4.97;;;;;;;14.27;81.57;96056.59;5095126;28;20102;-61
2023/07/01 03:09:07;;;;;;;5.30;4.20;;;;;;;14.29;81.06;96052.06;5095038;28;20097;-61
2023/07/01 03:11:35;;;;;;;3.45;3.15;;;;;;;14.30;81.50;96050.28;5095168;28;20051;-62
2023/07/01 03:14:02;;;;;;;5.82;4.53;;;;;;;14.34;81.37;96050.00;5095032;28;20072;-61
2023/07/01 03:16:30;;;;;;;9.65;4.03;;;;;;;14.40;80.89;96056.69;5094757;28;20055;-62
2023/07/01 03:18:58;;;;;;;4.80;4.18;;;;;;;14.42;80.81;96060.03;5094691;28;20047;-62
2023/07/01 03:21:26;;;;;;;6.57;4.95;;;;;;;14.47;80.46;96065.03;5094756;28;20052;-62
2023/07/01 03:23:53;;;;;;;5.53;4.05;;;;;;;14.42;80.65;96059.22;5094711;28;20079;-62
2023/07/01 03:26:22;;;;;;;6.07;4.20;;;;;;;14.40;80.87;96062.78;5094572;28;20383;-62
2023/07/01 03:28:49;;;;;;;5.00;4.50;;;;;;;14.44;80.87;96068.69;5094559;28;20131;-61
2023/07/01 03:31:17;;;;;;;4.50;4.10;;;;;;;14.57;81.72;96060.88;5094681;28;20101;-62
2023/07/01 03:33:44;;;;;;;4.85;3.70;;;;;;;14.80;82.01;96055.16;5094571;28;20051;-62
2023/07/01 03:36:11;;;;;;;4.28;3.88;;;;;;;15.03;81.21;96049.28;5094455;28;20079;-63
2023/07/01 03:38:38;;;;;;;6.75;3.50;;;;;;;15.35;80.07;96047.31;5094380;28;20048;-62
2023/07/01 03:41:06;;;;;;;3.70;3.40;;;;;;;15.73;78.77;96056.25;5094452;28;20078;-62
2023/07/01 03:43:35;;;;;;;5.72;3.28;;;;;;;16.14;76.33;96057.09;5094378;28;20044;-61
2023/07/01 03:46:02;;;;;;;5.00;3.58;;;;;;;16.54;74.34;96050.84;5094080;28;20052;-63
2023/07/01 03:48:30;;;;;;;4.28;3.50;;;;;;;17.00;73.85;96053.81;5094205;28;20178;-62
2023/07/01 03:50:57;;;;;;;3.20;3.00;;;;;;;17.47;72.17;96053.13;5094283;28;20551;-62
2023/07/01 03:53:24;;;;;;;3.88;2.83;;;;;;;17.92;70.29;96055.97;5094223;28;20040;-63
2023/07/01 03:55:51;;;;;;;2.95;2.63;;;;;;;18.38;68.42;96060.50;5093955;28;20139;-62
2023/07/01 03:58:24;;;;;;;6.50;3.10;;;;;;;18.86;66.80;96055.94;5094029;28;20051;-62
2023/07/01 04:00:53;;;;;;;3.42;2.70;;;;;;;19.31;65.01;96058.56;5094162;28;20044;-63
2023/07/01 04:03:23;;;;;;;2.75;2.38;;;;;;;19.75;63.89;96062.13;5094017;28;20040;-63
2023/07/01 04:05:51;;;;;;;2.92;2.55;;;;;;;20.13;62.04;96067.88;5093933;28;20421;-62
2023/07/01 04:08:18;;;;;;;3.53;2.83;;;;;;;20.46;61.37;96071.28;5093905;28;20507;-63
2023/07/01 04:10:46;;;;;;;2.70;2.50;;;;;;;20.86;60.46;96074.94;5093835;28;20537;-63
2023/07/01 04:13:13;;;;;;;5.70;2.90;;;;;;;21.24;58.98;96077.91;5093832;28;20050;-62
2023/07/01 04:15:40;;;;;;;5.53;3.13;;;;;;;21.56;57.07;96082.16;5093761;28;20040;-62
2023/07/01 04:18:09;;;;;;;2.65;2.45;;;;;;;21.84;56.26;96082.34;5093712;28;20523;-63
2023/07/01 04:20:36;;;;;;;5.38;2.40;;;;;;;22.14;55.66;96074.31;5093693;28;20051;-64
2023/07/01 04:23:04;;;;;;;3.75;2.35;;;;;;;22.47;54.94;96077.50;5093700;28;20048;-63
2023/07/01 04:25:31;;;;;;;4.22;2.55;;;;;;;22.77;54.67;96065.91;5093600;28;20508;-63
2023/07/01 04:27:59;;;;;;;3.58;2.60;;;;;;;23.08;53.64;96065.63;5093572;28;20048;-62
2023/07/01 04:30:26;;;;;;;2.55;2.35;;;;;;;23.35;53.04;96071.91;5093538;28;20058;-63
2023/07/01 04:32:53;;;;;;;3.20;2.80;;;;;;;23.59;52.65;96067.84;5093498;28;20087;-62
2023/07/01 04:35:22;;;;;;;2.83;2.63;;;;;;;23.82;52.51;96072.75;5093356;28;20056;-63
2023/07/01 04:37:49;;;;;;;2.88;2.58;;;;;;;24.01;51.59;96074.41;5093408;28;20105;-62
2023/07/01 04:40:16;;;;;;;3.10;2.80;;;;;;;24.11;51.54;96072.47;5093360;28;20048;-64
2023/07/01 04:42:49;;;;;;;4.55;2.60;;;;;;;24.29;51.16;96070.81;5093459;28;20131;-64
2023/07/01 04:45:18;;;;;;;4.65;3.05;;;;;;;24.54;51.07;96066.47;5093053;28;20532;-64
2023/07/01 04:47:45;;;;;;;4.35;2.20;;;;;;;24.79;50.70;96065.75;5093385;28;20048;-63
2023/07/01 04:50:13;;;;;;;4.22;2.42;;;;;;;24.91;50.27;96061.00;5092749;28;20044;-63
2023/07/01 04:52:43;;;;;;;5.63;2.65;;;;;;;25.15;49.57;96059.41;5093202;28;20044;-64
2023/07/01 04:55:10;;;;;;;3.97;2.50;;;;;;;25.43;50.30;96062.66;5093148;28;20414;-63
2023/07/01 04:57:40;;;;;;;2.97;2.38;;;;;;;25.79;49.87;96066.13;5093205;28;20083;-63
2023/07/01 05:00:10;;;;;;;4.88;2.17;;;;;;;26.09;49.33;96069.97;5093198;28;20052;-64
2023/07/01 05:02:37;;;;;;;2.95;2.42;;;;;;;26.28;48.99;96059.91;5093141;28;20211;-64
2023/07/01 05:05:06;;;;;;;2.85;2.65;;;;;;;26.52;47.73;96066.28;5093048;28;20044;-64
2023/07/01 05:07:33;;;;;;;3.10;2.80;;;;;;;26.85;47.03;96062.66;5092988;28;20044;-64
2023/07/01 05:10:02;;;;;;;3.30;2.78;;;;;;;27.12;47.12;96057.91;5093027;28;20074;-63
2023/07/01 05:12:29;;;;;;;4.20;2.80;;;;;;;27.37;47.08;96061.28;5092974;28;20140;-64
2023/07/01 05:14:57;;;;;;;3.55;2.65;;;;;;;27.53;47.10;96062.19;5092994;28;20052;-64
2023/07/01 05:17:24;;;;;;;4.18;2.72;;;;;;;27.74;46.85;96063.44;5093138;28;20044;-63
2023/07/01 05:19:52;;;;;;;4.63;2.67;;;;;;;27.97;46.15;96060.75;5092965;28;20043;-64
2023/07/01 05:22:19;;;;;;;4.55;2.58;;;;;;;28.14;46.47;96071.34;5093016;28;20044;-64
2023/07/01 05:24:46;;;;;;;3.17;2.83;;;;;;;28.35;45.25;96075.25;5093055;28;20486;-64
2023/07/01 05:27:15;;;;;;;3.20;2.63;;;;;;;28.56;45.81;96079.91;5092909;28;20505;-63
2023/07/01 05:29:42;;;;;;;4.20;3.10;;;;;;;28.69;44.75;96079.28;5092881;28;20478;-64
2023/07/01 05:32:09;;;;;;;3.63;2.85;;;;;;;28.84;43.50;96081.13;5092882;28;20044;-64
2023/07/01 05:34:37;;;;;;;5.72;2.85;;;;;;;28.75;43.61;96080.38;5092855;28;20048;-63
2023/07/01 05:37:05;;;;;;;4.53;3.10;;;;;;;28.80;43.43;96080.66;5092796;28;20101;-63
2023/07/01 05:39:32;;;;;;;6.82;2.45;;;;;;;29.04;43.07;96080.59;5092753;28;20076;-64
2023/07/01 05:41:59;;;;;;;5.13;3.08;;;;;;;29.25;42.70;96080.66;5092846;28;20486;-63
2023/07/01 05:44:29;;;;;;;2.70;2.47;;;;;;;29.49;41.47;96075.13;5092780;28;20052;-64
2023/07/01 05:46:57;;;;;;;4.45;2.70;;;;;;;29.75;41.43;96076.47;5092549;28;20048;-64
2023/07/01 05:49:24;;;;;;;6.75;2.95;;;;;;;29.83;41.96;96067.44;5091432;28;20040;-64
2023/07/01 05:51:52;;;;;;;3.67;2.88;;;;;;;29.90;41.28;96068.34;5092832;28;20102;-63
2023/07/01 05:54:20;;;;;;;3.17;2.90;;;;;;;29.98;41.60;96070.06;5092740;28;20099;-63
2023/07/01 05:56:48;;;;;;;3.30;2.80;;;;;;;30.21;41.82;96061.78;5092563;28;20497;-63
2023/07/01 05:59:15;;;;;;;3.40;2.40;;;;;;;30.37;41.21;96055.28;5092656;28;20075;-65
2023/07/01 06:01:43;;;;;;;2.92;2.65;;;;;;;30.34;40.05;96062.94;5093366;28;20083;-63
2023/07/01 06:04:11;;;;;;;3.33;2.65;;;;;;;30.58;39.75;96064.34;5096250;28;20048;-63
2023/07/01 06:06:39;;;;;;;4.70;2.20;;;;;;;30.77;40.54;96060.16;5096231;28;20052;-65
2023/07/01 06:09:08;;;;;;;3.45;2.58;;;;;;;30.97;40.24;96062.09;5096269;28;20489;-63
2023/07/01 06:11:35;;;;;;;6.93;1.92;;;;;;;31.14;39.63;96059.06;5096211;28;20055;-63
2023/07/01 06:14:03;;;;;;;5.00;2.50;;;;;;;31.36;39.45;96059.00;5096129;28;20129;-63
2023/07/01 06:16:31;;;;;;;3.17;2.55;;;;;;;31.55;39.75;96057.41;5096020;28;20048;-64
2023/07/01 06:19:00;;;;;;;2.65;2.45;;;;;;;31.68;38.91;96064.69;5095947;28;20051;-65
2023/07/01 06:21:29;;;;;;;6.03;2.60;;;;;;;31.87;38.53;96064.91;5095937;28;20052;-64
2023/07/01 06:23:59;;;;;;;5.53;2.40;;;;;;;31.90;38.25;96069.91;5095891;28;20059;-63
2023/07/01 06:26:27;;;;;;;3.05;2.40;;;;;;;32.10;38.00;96069.13;5095846;28;20456;-63
2023/07/01 06:28:54;;;;;;;4.55;2.28;;;;;;;32.21;37.22;96067.69;5095843;28;20551;-63
2023/07/01 06:31:21;;;;;;;3.28;2.50;;;;;;;32.38;36.80;96070.81;5095769;28;20482;-65
2023/07/01 06:33:49;;;;;;;5.32;2.60;;;;;;;32.48;37.55;96071.25;5095671;28;20130;-63
2023/07/01 06:36:18;;;;;;;2.40;2.22;;;;;;;32.55;36.89;96067.69;5095584;28;20054;-65
2023/07/01 06:38:48;;;;;;;2.88;2.30;;;;;;;32.54;37.68;96066.88;5095586;28;20494;-63
2023/07/01 06:41:16;;;;;;;5.43;2.33;;;;;;;32.54;37.34;96061.47;5095600;28;20375;-63
2023/07/01 06:43:43;;;;;;;5.05;2.15;;;;;;;32.47;36.67;96061.44;5095510;28;20052;-64
2023/07/01 06:46:11;;;;;;;3.63;2.40;;;;;;;32.56;37.47;96053.16;5095223;28;20044;-64
2023/07/01 06:48:42;;;;;;;2.42;2.22;;;;;;;32.80;35.86;96064.34;5095440;28;20074;-63
2023/07/01 06:51:10;;;;;;;3.72;2.70;;;;;;;32.88;36.40;96067.66;5095462;28;20131;-64
2023/07/01 06:53:41;;;;;;;3.30;2.60;;;;;;;32.80;35.02;96075.97;5095303;28;20051;-63
2023/07/01 06:56:09;;;;;;;5.28;2.55;;;;;;;32.78;35.47;96072.69;5095260;28;20056;-63
2023/07/01 06:58:36;;;;;;;3.28;2.40;;;;;;;32.97;35.73;96075.53;5095202;28;20052;-64
2023/07/01 07:01:04;;;;;;;5.78;2.25;;;;;;;33.09;36.53;96082.00;5095137;28;20044;-63
2023/07/01 07:03:32;;;;;;;3.25;2.28;;;;;;;33.18;35.23;96087.16;5095075;28;20055;-63
2023/07/01 07:06:02;;;;;;;3.95;2.38;;;;;;;33.16;34.19;96081.97;5095146;28;20068;-63
2023/07/01 07:08:29;;;;;;;;;;;;;;;33.21;35.59;96092.16;5095539;28;20078;-64
2023/07/01 07:10:59;;;;;;;2.60;2.38;;;;;;;33.34;35.33;96088.56;5095165;28;19920;-63
2023/07/01 07:13:27;;;;;;;3.80;2.55;;;;;;;33.37;35.81;96085.41;5094483;28;20054;-63
2023/07/01 07:15:54;;;;;;;2.78;2.58;;;;;;;33.44;36.13;96085.41;5094884;28;20055;-64
2023/07/01 07:18:21;;;;;;;2.97;2.75;;;;;;;33.46;36.19;96086.84;5094849;28;20162;-65
2023/07/01 07:20:48;;;;;;;3.03;2.72;;;;;;;33.47;36.60;96082.25;5094853;28;20056;-62
2023/07/01 07:23:15;;;;;;;3.35;2.70;;;;;;;33.60;34.91;96079.50;5094778;28;20109;-63
2023/07/01 07:25:43;;;;;;;4.90;2.63;;;;;;;33.63;35.16;96084.50;5094709;28;20127;-64
2023/07/01 07:28:12;;;;;;;7.60;3.42;;;;;;;33.66;36.15;96083.22;5094585;28;20747;-64
2023/07/01 07:30:40;;;;;;;3.30;2.85;;;;;;;33.56;36.23;96083.69;5094651;28;20467;-64
2023/07/01 07:33:08;;;;;;;6.18;3.10;;;;;;;33.58;35.38;96091.56;5094536;28;20503;-65
2023/07/01 07:35:35;;;;;;;5.75;3.05;;;;;;;33.45;35.47;96085.19;5094768;28;20126;-63
2023/07/01 07:38:03;;;;;;;6.32;3.45;;;;;;;33.38;35.14;96093.31;5094598;28;20047;-64
2023/07/01 07:40:31;;;;;;;5.85;3.20;;;;;;;33.44;34.36;96086.25;5094476;28;20047;-64
2023/07/01 07:42:58;;;;;;;3.28;2.90;;;;;;;33.63;34.68;96078.25;5094406;28;20079;-65
2023/07/01 07:45:27;;;;;;;6.80;2.80;;;;;;;33.75;33.75;96078.38;5094045;28;20075;-65
2023/07/01 07:47:55;;;;;;;3.92;2.75;;;;;;;33.66;33.88;96075.09;5094293;28;20055;-64
2023/07/01 07:50:22;;;;;;;4.55;3.28;;;;;;;33.71;34.39;96071.75;5094290;28;20123;-64
2023/07/01 07:52:49;;;;;;;6.18;3.58;;;;;;;33.56;34.02;96072.00;5094297;28;20446;-64
2023/07/01 07:55:16;;;;;;;6.50;3.58;;;;;;;33.64;32.39;96072.59;5094110;28;20048;-64
2023/07/01 07:57:44;;;;;;;3.60;2.85;;;;;;;33.69;34.70;96073.81;5094061;28;20079;-64
2023/07/01 08:00:12;;;;;;;7.32;3.30;;;;;;;33.71;35.63;96067.13;5094044;28;20090;-64
2023/07/01 08:02:44;;;;;;;4.43;3.08;;;;;;;33.84;35.36;96068.13;5093983;28;20513;-64
2023/07/01 08:05:15;;;;;;;8.35;3.75;;;;;;;33.77;32.63;96068.16;5093911;28;20044;-64
2023/07/01 08:07:44;;;;;;;3.75;3.35;;;;;;;33.76;32.90;96069.19;5093941;28;20070;-64
2023/07/01 08:10:13;;;;;;;6.53;3.60;;;;;;;33.93;34.81;96072.22;5093857;28;20040;-64
2023/07/01 08:12:40;;;;;;;3.47;3.17;;;;;;;33.88;32.28;96067.47;5093806;28;20058;-63
2023/07/01 08:15:08;;;;;;;3.88;3.30;;;;;;;33.91;32.97;96077.88;5093740;28;20054;-64
2023/07/01 08:17:36;;;;;;;4.68;3.67;;;;;;;33.60;32.39;96062.41;5093706;28;20048;-64
2023/07/01 08:20:05;;;;;;;3.38;3.05;;;;;;;33.56;33.54;96061.16;5093879;28;20043;-65
2023/07/01 08:22:33;;;;;;;3.83;3.47;;;;;;;33.76;34.26;96066.47;5093698;28;20516;-64
2023/07/01 08:25:00;;;;;;;3.60;3.30;;;;;;;33.80;32.02;96064.19;5093003;28;20681;-64
2023/07/01 08:27:27;;;;;;;7.55;3.63;;;;;;;33.78;32.80;96067.09;5093414;28;20047;-63
2023/07/01 08:29:54;;;;;;;3.83;3.15;;;;;;;33.82;33.88;96076.47;5092393;28;20120;-64
2023/07/01 08:32:21;;;;;;;5.25;3.60;;;;;;;33.98;32.43;96066.97;5093598;28;20055;-64
2023/07/01 08:34:49;;;;;;;3.50;3.20;;;;;;;33.94;32.93;96067.63;5093477;28;20129;-64
2023/07/01 08:37:17;;;;;;;3.30;3.00;;;;;;;33.93;33.06;96065.97;5093378;28;20159;-64
2023/07/01 08:39:45;;;;;;;5.50;3.17;;;;;;;33.93;33.82;96065.97;5093301;28;20043;-64
2023/07/01 08:42:17;;;;;;;5.47;3.65;;;;;;;33.69;31.45;96069.25;5093369;28;20046;-64
2023/07/01 08:44:46;;;;;;;4.53;3.55;;;;;;;32.84;31.78;96057.47;5093058;28;20040;-64
2023/07/01 08:47:16;;;;;;;4.97;3.28;;;;;;;32.74;33.44;96052.47;5093346;28;20082;-64
2023/07/01 08:49:49;;;;;;;5.15;3.28;;;;;;;32.82;35.75;96054.13;5093325;28;20044;-64
2023/07/01 08:52:21;;;;;;;5.15;3.28;;;;;;;32.79;32.19;96052.69;5093319;28;20040;-63
2023/07/01 08:54:48;;;;;;;6.70;3.10;;;;;;;32.88;33.98;96048.69;5093240;28;20048;-64
2023/07/01 08:57:16;;;;;;;4.75;2.70;;;;;;;32.76;33.28;96045.81;5093201;28;20052;-63
2023/07/01 08:59:44;;;;;;;4.60;3.20;;;;;;;32.89;34.79;96047.66;5093196;28;20072;-63
2023/07/01 09:02:15;;;;;;;3.70;3.40;;;;;;;32.82;34.49;96046.00;5093116;28;20055;-64
2023/07/01 09:04:42;;;;;;;4.05;3.00;;;;;;;32.78;32.79;96046.41;5092971;28;20055;-64
2023/07/01 09:07:10;;;;;;;2.97;2.67;;;;;;;32.60;33.53;96044.38;5093277;28;20071;-64
2023/07/01 09:09:40;;;;;;;3.03;2.83;;;;;;;32.32;31.62;96037.31;5093194;28;20052;-63
2023/07/01 09:12:08;;;;;;;3.85;3.25;;;;;;;32.09;32.80;96046.69;5093137;28;20051;-63
2023/07/01 09:15:00;;;;;;;4.05;3.10;;;;;;;31.97;35.43;96042.94;5092918;28;20052;-63
2023/07/01 09:17:28;;;;;;;4.75;3.10;;;;;;;31.94;33.38;96035.25;5092951;28;20055;-64
2023/07/01 09:19:59;;;;;;;5.90;2.90;;;;;;;31.80;35.78;96031.66;5093040;28;20044;-63
2023/07/01 09:22:26;;;;;;;4.68;3.05;;;;;;;31.96;37.22;96031.28;5093050;28;20513;-63
2023/07/01 09:24:55;;;;;;;5.13;3.10;;;;;;;32.08;37.83;96033.38;5093002;28;20413;-65
2023/07/01 09:27:22;;;;;;;4.90;3.20;;;;;;;32.11;35.90;96032.97;5092900;28;20052;-63
2023/07/01 09:29:49;;;;;;;4.45;3.50;;;;;;;32.22;36.92;96026.09;5092869;28;20051;-64
2023/07/01 09:32:28;;;;;;;3.17;2.92;;;;;;;32.18;33.82;96024.84;5092822;28;20128;-64
2023/07/01 09:34:57;;;;;;;6.05;3.40;;;;;;;32.23;35.34;96019.66;5092895;28;20044;-64
2023/07/01 09:37:25;;;;;;;3.33;3.03;;;;;;;32.17;34.58;96017.78;5094721;28;20132;-64
2023/07/01 09:39:53;;;;;;;3.80;3.13;;;;;;;32.15;37.39;96018.00;5096741;28;20071;-63
2023/07/01 09:42:21;;;;;;;5.45;3.53;;;;;;;32.06;37.96;96020.06;5096722;28;20048;-64
2023/07/01 09:45:15;;;;;;;5.20;3.13;;;;;;;31.82;36.38;96007.97;5096371;28;20048;-63
2023/07/01 09:47:43;;;;;;;3.28;2.97;;;;;;;31.51;36.30;96011.03;5060719;28;20044;-64
2023/07/01 09:50:21;;;;;;;4.70;3.53;;;;;;;31.26;35.64;96010.72;5096614;28;20040;-63
2023/07/01 09:52:50;;;;;;;5.65;3.55;;;;;;;31.27;36.41;95998.88;5096657;28;20086;-64
2023/07/01 09:55:18;;;;;;;5.15;3.45;;;;;;;31.54;36.45;96004.38;5096605;28;20099;-64
2023/07/01 09:57:47;;;;;;;3.67;3.20;;;;;;;31.65;38.82;95995.69;5096124;28;20059;-64
2023/07/01 10:00:16;;;;;;;5.50;3.72;;;;;;;31.66;38.29;96001.91;5096430;28;20040;-63
2023/07/01 10:02:45;;;;;;;4.05;3.65;;;;;;;31.65;39.17;96001.09;5096285;28;20050;-63
2023/07/01 10:05:13;;;;;;;4.03;3.30;;;;;;;31.61;37.76;95996.28;5096328;28;20051;-64
2023/07/01 10:07:41;;;;;;;3.97;3.08;;;;;;;31.78;34.99;96002.13;5096314;28;20478;-63
2023/07/01 10:10:13;;;;;;;4.03;3.28;;;;;;;31.52;34.35;95993.78;5096207;28;20409;-64
2023/07/01 10:12:43;;;;;;;3.50;3.20;;;;;;;31.53;35.98;96000.03;5096225;28;20127;-64
2023/07/01 10:15:14;;;;;;;3.95;3.33;;;;;;;31.59;37.14;95998.34;5092024;28;20117;-64
2023/07/01 10:17:49;;;;;;;6.25;3.30;;;;;;;31.48;35.28;95999.81;5094025;28;20055;-64
2023/07/01 10:20:27;;;;;;;5.35;3.45;;;;;;;31.30;35.39;95997.66;5096029;28;20086;-63
2023/07/01 10:22:56;;;;;;;5.63;3.72;;;;;;;31.25;36.96;95999.09;5094749;28;20089;-64
2023/07/01 10:25:31;;;;;;;5.47;3.50;;;;;;;31.25;36.62;95991.00;5095879;28;20432;-63
2023/07/01 10:28:16;;;;;;;3.42;3.13;;;;;;;31.30;34.92;95989.56;5095855;28;20074;-63
2023/07/01 10:31:15;;;;;;;3.75;3.15;;;;;;;31.48;35.57;95978.22;5091292;28;20121;-64
2023/07/01 10:33:55;;;;;;;5.00;3.22;;;;;;;31.51;36.70;95978.59;5074350;28;20053;-63
2023/07/01 10:36:23;;;;;;;3.25;3.05;;;;;;;31.46;35.35;95972.16;5073742;28;20056;-64
2023/07/01 10:38:51;;;;;;;3.78;3.20;;;;;;;31.63;35.78;95967.19;5075453;28;20055;-64
2023/07/01 10:41:52;;;;;;;3.88;3.13;;;;;;;31.87;34.13;95965.75;5076335;28;20564;-64
2023/07/01 10:44:24;;;;;;;5.45;3.10;;;;;;;32.02;33.85;95968.28;5087806;28;20051;-64
2023/07/01 10:47:15;;;;;;;6.78;3.25;;;;;;;32.06;36.38;95963.28;5095504;28;20056;-64
2023/07/01 10:50:06;;;;;;;4.10;3.00;;;;;;;32.06;33.19;95966.00;5094563;28;20405;-65
2023/07/01 10:52:35;;;;;;;4.03;3.35;;;;;;;32.15;38.73;95964.72;5092410;28;20051;-64
2023/07/01 10:55:02;;;;;;;3.85;3.55;;;;;;;32.23;36.13;95958.25;5075178;28;20048;-64
2023/07/01 10:57:30;;;;;;;3.13;2.90;;;;;;;32.02;32.31;95957.47;5074903;28;20049;-64
2023/07/01 11:00:36;;;;;;;7.13;3.70;;;;;;;31.25;31.75;95950.50;5075925;28;20130;-64
2023/07/01 11:03:10;;;;;;;4.07;3.30;;;;;;;31.26;36.28;95938.66;5066319;28;20124;-64
2023/07/01 11:05:57;;;;;;;3.72;3.42;;;;;;;31.47;38.18;95936.84;5074907;28;20114;-63
2023/07/01 11:08:24;;;;;;;3.03;2.80;;;;;;;31.75;35.45;95929.56;5074875;28;20045;-64
2023/07/01 11:10:52;;;;;;;3.28;3.05;;;;;;;31.76;31.26;95923.16;5075652;28;20474;-64
2023/07/01 11:13:20;;;;;;;3.30;3.00;;;;;;;31.29;32.99;95918.50;5074661;28;20044;-63
2023/07/01 11:16:02;;;;;;;4.38;3.17;;;;;;;31.20;37.09;95917.03;5074669;28;20500;-64
2023/07/01 11:18:42;;;;;;;6.65;3.20;;;;;;;31.27;36.87;95910.59;5074603;28;20398;-65
2023/07/01 11:21:10;;;;;;;;;;;;;;;31.39;33.96;95907.31;5075939;28;20401;-63
2023/07/01 11:23:38;;;;;;;4.88;3.38;;;;;;;31.28;33.32;95893.34;5074582;28;19927;-64
2023/07/01 11:26:05;;;;;;;3.80;3.15;;;;;;;31.21;32.53;95895.22;5074461;28;20045;-64
2023/07/01 11:28:33;;;;;;;7.22;3.60;;;;;;;31.25;36.31;95892.94;5074425;28;20051;-64
2023/07/01 11:31:12;;;;;;;3.95;3.35;;;;;;;31.13;36.37;95887.31;5084554;28;20059;-64
2023/07/01 11:33:46;;;;;;;3.60;3.22;;;;;;;31.09;33.93;95886.06;5094750;28;20044;-65
2023/07/01 11:36:15;;;;;;;4.88;3.45;;;;;;;30.93;36.81;95885.41;5094290;28;20428;-64
2023/07/01 11:38:45;;;;;;;4.45;3.67;;;;;;;30.67;33.84;95884.25;5090794;28;20052;-64
2023/07/01 11:41:15;;;;;;;5.65;3.58;;;;;;;30.61;34.18;95877.00;5090375;28;20040;-64
2023/07/01 11:43:42;;;;;;;6.05;3.83;;;;;;;30.60;36.74;95878.00;5094227;28;20048;-65